sensor_id;sensor_type;location;lat;lon;timestamp;pressure;altitude;pressure_sealevel;temperature;humidity
73633;BME280;61927;50.080;14.418;2022-11-27T00:01:20;100848.22;;;5.62;75.38
73633;BME280;61927;50.080;14.418;2022-11-27T00:03:46;100836.91;;;5.57;76.05
73633;BME280;61927;50.080;14.418;2022-11-27T00:06:17;100838.78;;;5.50;76.09
73633;BME280;61927;50.080;14.418;2022-11-27T00:08:44;100838.03;;;5.43;76.54
73633;BME280;61927;50.080;14.418;2022-11-27T00:11:13;100835.53;;;5.37;76.27
73633;BME280;61927;50.080;14.418;2022-11-27T00:13:39;100833.78;;;5.36;76.21
73633;BME280;61927;50.080;14.418;2022-11-27T00:16:05;100827.66;;;5.36;76.11
73633;BME280;61927;50.080;14.418;2022-11-27T00:18:31;100830.34;;;5.33;76.17
73633;BME280;61927;50.080;14.418;2022-11-27T00:21:04;100818.16;;;5.27;75.75
73633;BME280;61927;50.080;14.418;2022-11-27T00:23:31;100813.91;;;5.20;76.34
73633;BME280;61927;50.080;14.418;2022-11-27T00:25:57;100814.84;;;5.17;76.38
73633;BME280;61927;50.080;14.418;2022-11-27T00:28:23;100814.03;;;5.14;76.67
73633;BME280;61927;50.080;14.418;2022-11-27T00:30:48;100811.56;;;5.03;76.90
73633;BME280;61927;50.080;14.418;2022-11-27T00:33:14;100817.88;;;4.95;77.38
73633;BME280;61927;50.080;14.418;2022-11-27T00:35:40;100830.06;;;4.99;77.23
73633;BME280;61927;50.080;14.418;2022-11-27T00:38:05;100823.13;;;4.95;77.25
73633;BME280;61927;50.080;14.418;2022-11-27T00:40:31;100819.63;;;4.94;77.36
73633;BME280;61927;50.080;14.418;2022-11-27T00:42:56;100830.28;;;4.86;76.49
73633;BME280;61927;50.080;14.418;2022-11-27T00:45:22;100836.56;;;4.76;76.77
73633;BME280;61927;50.080;14.418;2022-11-27T00:47:48;100834.03;;;4.70;76.82
73633;BME280;61927;50.080;14.418;2022-11-27T00:50:13;100822.81;;;4.61;77.43
73633;BME280;61927;50.080;14.418;2022-11-27T00:52:39;100833.53;;;4.47;77.68
73633;BME280;61927;50.080;14.418;2022-11-27T00:55:05;100835.41;;;4.39;77.70
73633;BME280;61927;50.080;14.418;2022-11-27T00:57:31;100839.00;;;4.32;78.40
73633;BME280;61927;50.080;14.418;2022-11-27T00:59:56;100839.91;;;4.29;77.98
73633;BME280;61927;50.080;14.418;2022-11-27T01:02:22;100841.72;;;4.26;78.95
73633;BME280;61927;50.080;14.418;2022-11-27T01:04:48;100847.88;;;4.23;78.69
73633;BME280;61927;50.080;14.418;2022-11-27T01:07:14;100847.84;;;4.26;78.74
73633;BME280;61927;50.080;14.418;2022-11-27T01:09:40;100842.56;;;4.28;78.56
73633;BME280;61927;50.080;14.418;2022-11-27T01:12:05;100835.59;;;4.25;78.83
73633;BME280;61927;50.080;14.418;2022-11-27T01:14:31;100831.22;;;4.24;78.71
73633;BME280;61927;50.080;14.418;2022-11-27T01:16:56;100834.78;;;4.21;78.66
73633;BME280;61927;50.080;14.418;2022-11-27T01:19:22;100828.72;;;4.16;78.76
73633;BME280;61927;50.080;14.418;2022-11-27T01:21:48;100841.00;;;4.14;79.24
73633;BME280;61927;50.080;14.418;2022-11-27T01:24:14;100842.78;;;4.12;78.91
73633;BME280;61927;50.080;14.418;2022-11-27T01:26:41;100838.41;;;4.13;78.90
73633;BME280;61927;50.080;14.418;2022-11-27T01:29:07;100837.50;;;4.14;79.09
73633;BME280;61927;50.080;14.418;2022-11-27T01:31:33;100833.13;;;4.14;78.32
73633;BME280;61927;50.080;14.418;2022-11-27T01:34:01;100840.13;;;4.14;78.87
73633;BME280;61927;50.080;14.418;2022-11-27T01:36:28;100838.38;;;4.14;78.86
73633;BME280;61927;50.080;14.418;2022-11-27T01:38:55;100836.66;;;4.12;78.69
73633;BME280;61927;50.080;14.418;2022-11-27T01:41:29;100839.31;;;4.09;78.44
73633;BME280;61927;50.080;14.418;2022-11-27T01:44:01;100840.28;;;4.03;78.93
73633;BME280;61927;50.080;14.418;2022-11-27T01:46:45;100825.47;;;3.96;78.88
73633;BME280;61927;50.080;14.418;2022-11-27T01:51:44;100826.38;;;3.95;79.21
73633;BME280;61927;50.080;14.418;2022-11-27T01:54:12;100818.50;;;3.95;79.69
73633;BME280;61927;50.080;14.418;2022-11-27T01:56:40;100814.00;;;4.03;78.68
73633;BME280;61927;50.080;14.418;2022-11-27T01:59:06;100813.09;;;4.06;78.44
73633;BME280;61927;50.080;14.418;2022-11-27T02:01:32;100807.00;;;4.04;78.28
73633;BME280;61927;50.080;14.418;2022-11-27T02:03:59;100802.56;;;4.07;78.03
73633;BME280;61927;50.080;14.418;2022-11-27T02:06:26;100808.75;;;4.03;78.10
73633;BME280;61927;50.080;14.418;2022-11-27T02:08:52;100808.84;;;3.97;78.09
73633;BME280;61927;50.080;14.418;2022-11-27T02:17:19;100803.88;;;3.76;78.56
73633;BME280;61927;50.080;14.418;2022-11-27T02:20:01;100803.06;;;3.69;78.96
73633;BME280;61927;50.080;14.418;2022-11-27T02:22:44;100797.84;;;3.68;79.24
73633;BME280;61927;50.080;14.418;2022-11-27T02:27:56;100779.56;;;3.60;78.93
73633;BME280;61927;50.080;14.418;2022-11-27T02:30:26;100773.47;;;3.56;78.75
73633;BME280;61927;50.080;14.418;2022-11-27T02:32:59;100778.78;;;3.52;79.13
73633;BME280;61927;50.080;14.418;2022-11-27T02:35:57;100783.13;;;3.54;78.80
73633;BME280;61927;50.080;14.418;2022-11-27T02:38:31;100786.63;;;3.53;78.74
73633;BME280;61927;50.080;14.418;2022-11-27T02:41:05;100791.03;;;3.51;78.00
73633;BME280;61927;50.080;14.418;2022-11-27T02:43:35;100788.47;;;3.45;79.13
73633;BME280;61927;50.080;14.418;2022-11-27T02:46:04;100777.19;;;3.39;79.00
73633;BME280;61927;50.080;14.418;2022-11-27T02:48:34;100772.88;;;3.33;79.70
73633;BME280;61927;50.080;14.418;2022-11-27T02:51:02;100782.50;;;3.34;79.67
73633;BME280;61927;50.080;14.418;2022-11-27T02:53:41;100772.00;;;3.33;79.54
73633;BME280;61927;50.080;14.418;2022-11-27T02:56:12;100766.78;;;3.30;79.29
73633;BME280;61927;50.080;14.418;2022-11-27T02:58:39;100769.41;;;3.30;79.21
73633;BME280;61927;50.080;14.418;2022-11-27T03:01:06;100773.75;;;3.32;78.62
73633;BME280;61927;50.080;14.418;2022-11-27T03:03:38;100765.13;;;3.22;79.10
73633;BME280;61927;50.080;14.418;2022-11-27T03:06:09;100760.81;;;3.18;79.10
73633;BME280;61927;50.080;14.418;2022-11-27T03:08:53;100757.34;;;3.13;79.24
73633;BME280;61927;50.080;14.418;2022-11-27T03:11:21;100757.47;;;3.04;79.38
73633;BME280;61927;50.080;14.418;2022-11-27T03:13:51;100760.13;;;2.98;79.80
73633;BME280;61927;50.080;14.418;2022-11-27T03:16:34;100766.25;;;3.00;80.20
73633;BME280;61927;50.080;14.418;2022-11-27T03:21:39;100768.84;;;3.02;79.77
73633;BME280;61927;50.080;14.418;2022-11-27T03:24:06;100762.72;;;3.03;80.19
73633;BME280;61927;50.080;14.418;2022-11-27T03:26:32;100756.56;;;3.05;80.13
73633;BME280;61927;50.080;14.418;2022-11-27T03:28:59;100760.06;;;3.04;79.70
73633;BME280;61927;50.080;14.418;2022-11-27T03:31:26;100763.66;;;2.97;80.00
73633;BME280;61927;50.080;14.418;2022-11-27T03:33:53;100762.84;;;2.89;80.19
73633;BME280;61927;50.080;14.418;2022-11-27T03:36:20;100764.59;;;2.88;80.03
73633;BME280;61927;50.080;14.418;2022-11-27T03:38:48;100764.59;;;2.90;80.42
73633;BME280;61927;50.080;14.418;2022-11-27T03:44:19;100767.19;;;2.93;80.20
73633;BME280;61927;50.080;14.418;2022-11-27T03:55:07;100771.63;;;2.85;79.67
73633;BME280;61927;50.080;14.418;2022-11-27T03:57:39;100783.91;;;2.81;80.02
73633;BME280;61927;50.080;14.418;2022-11-27T04:00:07;100784.75;;;2.83;79.53
73633;BME280;61927;50.080;14.418;2022-11-27T04:02:43;100787.41;;;2.79;80.43
73633;BME280;61927;50.080;14.418;2022-11-27T04:05:10;100790.06;;;2.76;80.32
73633;BME280;61927;50.080;14.418;2022-11-27T04:07:36;100790.94;;;2.75;80.43
73633;BME280;61927;50.080;14.418;2022-11-27T04:10:03;100787.44;;;2.76;80.30
73633;BME280;61927;50.080;14.418;2022-11-27T04:12:29;100790.09;;;2.73;79.94
73633;BME280;61927;50.080;14.418;2022-11-27T04:14:55;100789.28;;;2.65;80.31
73633;BME280;61927;50.080;14.418;2022-11-27T04:17:20;100786.69;;;2.62;80.30
73633;BME280;61927;50.080;14.418;2022-11-27T04:19:46;100785.84;;;2.58;80.28
73633;BME280;61927;50.080;14.418;2022-11-27T04:22:11;100789.34;;;2.55;80.35
73633;BME280;61927;50.080;14.418;2022-11-27T04:24:37;100785.00;;;2.53;80.87
73633;BME280;61927;50.080;14.418;2022-11-27T04:27:02;100783.31;;;2.47;80.42
73633;BME280;61927;50.080;14.418;2022-11-27T04:29:28;100780.72;;;2.44;81.10
73633;BME280;61927;50.080;14.418;2022-11-27T04:31:54;100779.88;;;2.41;80.88
73633;BME280;61927;50.080;14.418;2022-11-27T04:34:19;100785.09;;;2.41;81.44
73633;BME280;61927;50.080;14.418;2022-11-27T04:36:45;100771.88;;;2.56;81.30
73633;BME280;61927;50.080;14.418;2022-11-27T04:39:11;100774.44;;;2.65;80.86
73633;BME280;61927;50.080;14.418;2022-11-27T04:41:37;100772.63;;;2.70;80.10
73633;BME280;61927;50.080;14.418;2022-11-27T04:44:03;100777.09;;;2.61;80.07
73633;BME280;61927;50.080;14.418;2022-11-27T04:46:29;100775.47;;;2.46;79.89
73633;BME280;61927;50.080;14.418;2022-11-27T04:48:55;100776.38;;;2.40;80.74
73633;BME280;61927;50.080;14.418;2022-11-27T04:51:21;100776.38;;;2.40;80.48
73633;BME280;61927;50.080;14.418;2022-11-27T04:53:46;100775.53;;;2.35;80.44
73633;BME280;61927;50.080;14.418;2022-11-27T04:56:12;100777.38;;;2.22;81.10
73633;BME280;61927;50.080;14.418;2022-11-27T04:58:37;100776.50;;;2.20;81.18
73633;BME280;61927;50.080;14.418;2022-11-27T05:01:03;100773.88;;;2.23;81.34
73633;BME280;61927;50.080;14.418;2022-11-27T05:03:28;100772.09;;;2.30;80.83
73633;BME280;61927;50.080;14.418;2022-11-27T05:05:55;100776.47;;;2.25;80.61
73633;BME280;61927;50.080;14.418;2022-11-27T05:08:22;100770.38;;;2.23;80.86
73633;BME280;61927;50.080;14.418;2022-11-27T05:11:00;100772.13;;;2.24;81.14
73633;BME280;61927;50.080;14.418;2022-11-27T05:13:26;100772.13;;;2.22;81.25
73633;BME280;61927;50.080;14.418;2022-11-27T05:15:52;100772.13;;;2.22;80.85
73633;BME280;61927;50.080;14.418;2022-11-27T05:18:18;100775.59;;;2.26;80.99
73633;BME280;61927;50.080;14.418;2022-11-27T05:20:43;100778.19;;;2.31;80.97
73633;BME280;61927;50.080;14.418;2022-11-27T05:23:09;100774.78;;;2.21;80.79
73633;BME280;61927;50.080;14.418;2022-11-27T05:25:34;100778.25;;;2.23;81.45
73633;BME280;61927;50.080;14.418;2022-11-27T05:28:00;100769.44;;;2.35;81.02
73633;BME280;61927;50.080;14.418;2022-11-27T05:30:25;100778.97;;;2.42;80.19
73633;BME280;61927;50.080;14.418;2022-11-27T05:32:51;100779.00;;;2.40;80.50
73633;BME280;61927;50.080;14.418;2022-11-27T05:35:17;100776.41;;;2.36;80.00
73633;BME280;61927;50.080;14.418;2022-11-27T05:37:42;100780.81;;;2.32;80.80
73633;BME280;61927;50.080;14.418;2022-11-27T05:40:08;100775.59;;;2.29;80.63
73633;BME280;61927;50.080;14.418;2022-11-27T05:42:34;100781.63;;;2.37;80.71
73633;BME280;61927;50.080;14.418;2022-11-27T05:44:59;100777.25;;;2.41;80.31
73633;BME280;61927;50.080;14.418;2022-11-27T05:47:25;100769.41;;;2.36;80.42
73633;BME280;61927;50.080;14.418;2022-11-27T05:49:50;100768.59;;;2.31;80.51
73633;BME280;61927;50.080;14.418;2022-11-27T05:52:16;100772.97;;;2.29;80.91
73633;BME280;61927;50.080;14.418;2022-11-27T05:54:41;100770.31;;;2.32;80.57
73633;BME280;61927;50.080;14.418;2022-11-27T05:57:07;100776.41;;;2.34;80.72
73633;BME280;61927;50.080;14.418;2022-11-27T05:59:33;100779.91;;;2.33;80.47
73633;BME280;61927;50.080;14.418;2022-11-27T06:01:58;100779.94;;;2.32;80.83
73633;BME280;61927;50.080;14.418;2022-11-27T06:04:24;100783.44;;;2.29;81.10
73633;BME280;61927;50.080;14.418;2022-11-27T06:06:49;100789.50;;;2.34;81.39
73633;BME280;61927;50.080;14.418;2022-11-27T06:09:15;100785.13;;;2.36;80.42
73633;BME280;61927;50.080;14.418;2022-11-27T06:11:41;100793.94;;;2.28;81.09
73633;BME280;61927;50.080;14.418;2022-11-27T06:14:10;100786.09;;;2.23;81.70
73633;BME280;61927;50.080;14.418;2022-11-27T06:16:36;100789.56;;;2.28;80.95
73633;BME280;61927;50.080;14.418;2022-11-27T06:19:02;100792.16;;;2.30;81.33
73633;BME280;61927;50.080;14.418;2022-11-27T06:21:28;100786.91;;;2.34;81.45
73633;BME280;61927;50.080;14.418;2022-11-27T06:23:55;100788.63;;;2.37;80.97
73633;BME280;61927;50.080;14.418;2022-11-27T06:26:24;100787.72;;;2.42;81.05
73633;BME280;61927;50.080;14.418;2022-11-27T06:28:50;100792.09;;;2.40;80.39
73633;BME280;61927;50.080;14.418;2022-11-27T06:31:19;100795.63;;;2.36;80.92
73633;BME280;61927;50.080;14.418;2022-11-27T06:33:46;100809.56;;;2.41;81.08
73633;BME280;61927;50.080;14.418;2022-11-27T06:36:13;100800.75;;;2.48;81.61
73633;BME280;61927;50.080;14.418;2022-11-27T06:38:39;100800.72;;;2.56;80.77
73633;BME280;61927;50.080;14.418;2022-11-27T06:41:16;100799.81;;;2.60;80.71
73633;BME280;61927;50.080;14.418;2022-11-27T06:43:42;100791.06;;;2.59;80.21
73633;BME280;61927;50.080;14.418;2022-11-27T06:46:11;100788.44;;;2.61;80.26
73633;BME280;61927;50.080;14.418;2022-11-27T06:48:38;100786.69;;;2.60;80.06
73633;BME280;61927;50.080;14.418;2022-11-27T06:51:05;100781.47;;;2.58;79.91
73633;BME280;61927;50.080;14.418;2022-11-27T06:53:33;100778.91;;;2.51;79.20
73633;BME280;61927;50.080;14.418;2022-11-27T06:56:04;100784.19;;;2.46;80.28
73633;BME280;61927;50.080;14.418;2022-11-27T06:58:30;100787.66;;;2.50;80.26
73633;BME280;61927;50.080;14.418;2022-11-27T07:01:01;100785.00;;;2.54;79.82
73633;BME280;61927;50.080;14.418;2022-11-27T07:03:27;100778.03;;;2.50;79.79
73633;BME280;61927;50.080;14.418;2022-11-27T07:05:53;100783.31;;;2.46;79.95
73633;BME280;61927;50.080;14.418;2022-11-27T07:08:19;100781.56;;;2.46;80.00
73633;BME280;61927;50.080;14.418;2022-11-27T07:10:44;100778.94;;;2.49;80.06
73633;BME280;61927;50.080;14.418;2022-11-27T07:13:10;100782.38;;;2.53;79.73
73633;BME280;61927;50.080;14.418;2022-11-27T07:15:35;100781.53;;;2.49;79.35
73633;BME280;61927;50.080;14.418;2022-11-27T07:18:01;100778.09;;;2.44;79.71
73633;BME280;61927;50.080;14.418;2022-11-27T07:20:27;100778.13;;;2.38;79.74
73633;BME280;61927;50.080;14.418;2022-11-27T07:22:52;100765.06;;;2.34;79.91
73633;BME280;61927;50.080;14.418;2022-11-27T07:25:18;100767.75;;;2.26;79.78
73633;BME280;61927;50.080;14.418;2022-11-27T07:27:44;100771.28;;;2.19;80.11
73633;BME280;61927;50.080;14.418;2022-11-27T07:30:10;100766.97;;;2.10;80.27
73633;BME280;61927;50.080;14.418;2022-11-27T07:32:36;100764.38;;;2.06;80.95
73633;BME280;61927;50.080;14.418;2022-11-27T07:35:01;100760.03;;;2.05;80.96
73633;BME280;61927;50.080;14.418;2022-11-27T07:37:30;100749.50;;;2.12;80.97
73633;BME280;61927;50.080;14.418;2022-11-27T07:39:56;100757.38;;;2.09;80.65
73633;BME280;61927;50.080;14.418;2022-11-27T07:42:21;100749.50;;;2.12;80.85
73633;BME280;61927;50.080;14.418;2022-11-27T07:44:47;100749.47;;;2.18;80.45
73633;BME280;61927;50.080;14.418;2022-11-27T07:47:13;100749.38;;;2.31;80.42
73633;BME280;61927;50.080;14.418;2022-11-27T07:49:38;100752.81;;;2.39;79.84
73633;BME280;61927;50.080;14.418;2022-11-27T07:52:04;100752.78;;;2.42;79.72
73633;BME280;61927;50.080;14.418;2022-11-27T07:54:30;100754.50;;;2.46;79.61
73633;BME280;61927;50.080;14.418;2022-11-27T07:56:55;100758.84;;;2.50;78.88
73633;BME280;61927;50.080;14.418;2022-11-27T07:59:21;100756.25;;;2.45;79.09
73633;BME280;61927;50.080;14.418;2022-11-27T08:01:46;100751.97;;;2.35;79.30
73633;BME280;61927;50.080;14.418;2022-11-27T08:04:12;100758.16;;;2.26;79.29
73633;BME280;61927;50.080;14.418;2022-11-27T08:06:37;100752.03;;;2.26;79.60
73633;BME280;61927;50.080;14.418;2022-11-27T08:09:03;100750.38;;;2.13;80.22
73633;BME280;61927;50.080;14.418;2022-11-27T08:11:30;100755.63;;;2.10;79.90
73633;BME280;61927;50.080;14.418;2022-11-27T08:14:04;100758.28;;;2.05;80.43
73633;BME280;61927;50.080;14.418;2022-11-27T08:16:31;100757.41;;;2.05;80.72
73633;BME280;61927;50.080;14.418;2022-11-27T08:18:57;100754.81;;;2.05;80.85
73633;BME280;61927;50.080;14.418;2022-11-27T08:21:23;100753.06;;;2.04;80.36
73633;BME280;61927;50.080;14.418;2022-11-27T08:23:49;100747.88;;;1.98;81.25
73633;BME280;61927;50.080;14.418;2022-11-27T08:26:15;100756.63;;;1.93;80.99
73633;BME280;61927;50.080;14.418;2022-11-27T08:28:41;100749.63;;;1.92;81.27
73633;BME280;61927;50.080;14.418;2022-11-27T08:31:08;100747.91;;;1.91;81.54
73633;BME280;61927;50.080;14.418;2022-11-27T08:33:35;100744.41;;;1.89;81.59
73633;BME280;61927;50.080;14.418;2022-11-27T08:36:01;100741.75;;;1.99;81.88
73633;BME280;61927;50.080;14.418;2022-11-27T08:38:26;100738.19;;;2.10;81.27
73633;BME280;61927;50.080;14.418;2022-11-27T08:40:54;100734.69;;;2.11;81.26
73633;BME280;61927;50.080;14.418;2022-11-27T08:43:20;100738.19;;;2.09;81.28
73633;BME280;61927;50.080;14.418;2022-11-27T08:45:45;100730.34;;;2.07;81.58
73633;BME280;61927;50.080;14.418;2022-11-27T08:48:11;100726.81;;;2.11;81.44
73633;BME280;61927;50.080;14.418;2022-11-27T08:50:37;100736.41;;;2.14;81.99
73633;BME280;61927;50.080;14.418;2022-11-27T08:53:02;100727.66;;;2.16;81.45
73633;BME280;61927;50.080;14.418;2022-11-27T08:55:28;100730.19;;;2.27;81.16
73633;BME280;61927;50.080;14.418;2022-11-27T08:57:54;100732.81;;;2.29;81.00
73633;BME280;61927;50.080;14.418;2022-11-27T09:00:20;100727.59;;;2.27;81.10
73633;BME280;61927;50.080;14.418;2022-11-27T09:02:45;100726.66;;;2.33;81.27
73633;BME280;61927;50.080;14.418;2022-11-27T09:05:11;100726.66;;;2.34;80.83
73633;BME280;61927;50.080;14.418;2022-11-27T09:07:36;100725.72;;;2.41;80.64
73633;BME280;61927;50.080;14.418;2022-11-27T09:10:02;100720.47;;;2.41;80.75
73633;BME280;61927;50.080;14.418;2022-11-27T09:12:28;100724.00;;;2.40;81.29
73633;BME280;61927;50.080;14.418;2022-11-27T09:14:54;100724.84;;;2.42;81.15
73633;BME280;61927;50.080;14.418;2022-11-27T09:17:19;100725.78;;;2.35;80.96
73633;BME280;61927;50.080;14.418;2022-11-27T09:19:45;100729.28;;;2.34;81.15
73633;BME280;61927;50.080;14.418;2022-11-27T09:22:10;100729.31;;;2.30;81.32
73633;BME280;61927;50.080;14.418;2022-11-27T09:24:36;100727.53;;;2.33;81.99
73633;BME280;61927;50.080;14.418;2022-11-27T09:27:02;100731.94;;;2.28;81.64
73633;BME280;61927;50.080;14.418;2022-11-27T09:29:27;100737.16;;;2.31;82.06
73633;BME280;61927;50.080;14.418;2022-11-27T09:31:53;100737.09;;;2.40;81.69
73633;BME280;61927;50.080;14.418;2022-11-27T09:34:18;100726.41;;;2.63;81.25
73633;BME280;61927;50.080;14.418;2022-11-27T09:36:44;100737.63;;;2.76;80.71
73633;BME280;61927;50.080;14.418;2022-11-27T09:39:10;100734.91;;;2.88;80.31
73633;BME280;61927;50.080;14.418;2022-11-27T09:41:50;100731.28;;;3.01;79.28
73633;BME280;61927;50.080;14.418;2022-11-27T09:44:36;100729.44;;;3.08;78.73
73633;BME280;61927;50.080;14.418;2022-11-27T09:47:13;100724.13;;;3.15;79.08
73633;BME280;61927;50.080;14.418;2022-11-27T09:49:49;100725.81;;;3.21;78.54
73633;BME280;61927;50.080;14.418;2022-11-27T09:52:22;100716.19;;;3.20;78.33
73633;BME280;61927;50.080;14.418;2022-11-27T09:55:00;100711.84;;;3.19;78.83
73633;BME280;61927;50.080;14.418;2022-11-27T09:57:34;100703.94;;;3.20;78.80
73633;BME280;61927;50.080;14.418;2022-11-27T10:00:09;100706.56;;;3.22;78.55
73633;BME280;61927;50.080;14.418;2022-11-27T10:02:36;100699.47;;;3.29;78.70
73633;BME280;61927;50.080;14.418;2022-11-27T10:05:13;100696.75;;;3.38;78.94
73633;BME280;61927;50.080;14.418;2022-11-27T10:07:56;100694.88;;;3.46;78.38
73633;BME280;61927;50.080;14.418;2022-11-27T10:10:38;100688.81;;;3.42;78.53
73633;BME280;61927;50.080;14.418;2022-11-27T10:18:58;100668.53;;;3.55;78.41
73633;BME280;61927;50.080;14.418;2022-11-27T10:21:45;100656.09;;;3.68;77.72
73633;BME280;61927;50.080;14.418;2022-11-27T10:24:22;100663.78;;;3.80;77.68
73633;BME280;61927;50.080;14.418;2022-11-27T10:26:54;100659.31;;;3.86;76.96
73633;BME280;61927;50.080;14.418;2022-11-27T10:29:38;100653.25;;;3.83;76.72
73633;BME280;61927;50.080;14.418;2022-11-27T10:32:12;100659.44;;;3.79;76.84
73633;BME280;61927;50.080;14.418;2022-11-27T10:34:42;100646.22;;;3.85;77.31
73633;BME280;61927;50.080;14.418;2022-11-27T10:42:46;100634.28;;;4.18;76.36
73633;BME280;61927;50.080;14.418;2022-11-27T10:45:37;100631.44;;;4.32;76.01
73633;BME280;61927;50.080;14.418;2022-11-27T10:48:05;100631.28;;;4.39;75.50
73633;BME280;61927;50.080;14.418;2022-11-27T10:50:31;100637.31;;;4.46;75.12
73633;BME280;61927;50.080;14.418;2022-11-27T10:53:02;100629.44;;;4.46;74.08
73633;BME280;61927;50.080;14.418;2022-11-27T10:55:57;100634.72;;;4.44;74.61
73633;BME280;61927;50.080;14.418;2022-11-27T10:58:46;100625.03;;;4.46;75.06
73633;BME280;61927;50.080;14.418;2022-11-27T11:01:17;100609.09;;;4.56;74.58
73633;BME280;61927;50.080;14.418;2022-11-27T11:03:43;100611.56;;;4.63;74.62
73633;BME280;61927;50.080;14.418;2022-11-27T11:06:24;100612.44;;;4.64;74.14
73633;BME280;61927;50.080;14.418;2022-11-27T11:11:30;100609.66;;;4.71;74.18
73633;BME280;61927;50.080;14.418;2022-11-27T11:13:55;100607.00;;;4.73;74.00
73633;BME280;61927;50.080;14.418;2022-11-27T11:16:26;100611.47;;;4.69;73.90
73633;BME280;61927;50.080;14.418;2022-11-27T11:18:57;100606.94;;;4.76;73.29
73633;BME280;61927;50.080;14.418;2022-11-27T11:21:30;100604.44;;;4.70;73.49
73633;BME280;61927;50.080;14.418;2022-11-27T11:24:03;100608.91;;;4.65;73.94
73633;BME280;61927;50.080;14.418;2022-11-27T11:28:59;100592.34;;;4.61;74.13
73633;BME280;61927;50.080;14.418;2022-11-27T11:31:35;100589.88;;;4.52;74.17
73633;BME280;61927;50.080;14.418;2022-11-27T11:34:05;100596.88;;;4.53;74.88
73633;BME280;61927;50.080;14.418;2022-11-27T11:36:40;100587.31;;;4.49;75.12
73633;BME280;61927;50.080;14.418;2022-11-27T11:39:05;100591.88;;;4.39;74.88
73633;BME280;61927;50.080;14.418;2022-11-27T11:41:36;100586.84;;;4.27;75.53
73633;BME280;61927;50.080;14.418;2022-11-27T11:44:02;100585.97;;;4.27;75.53
73633;BME280;61927;50.080;14.418;2022-11-27T11:46:30;100587.00;;;4.18;76.20
73633;BME280;61927;50.080;14.418;2022-11-27T11:48:58;100577.50;;;4.11;76.64
73633;BME280;61927;50.080;14.418;2022-11-27T11:56:59;100562.63;;;4.11;77.10
73633;BME280;61927;50.080;14.418;2022-11-27T11:59:39;100565.28;;;4.08;77.19
73633;BME280;61927;50.080;14.418;2022-11-27T12:02:32;100568.81;;;4.07;77.28
73633;BME280;61927;50.080;14.418;2022-11-27T12:08:04;100566.13;;;4.10;77.85
73633;BME280;61927;50.080;14.418;2022-11-27T12:13:24;100551.91;;;4.22;77.67
73633;BME280;61927;50.080;14.418;2022-11-27T12:21:15;100548.34;;;4.26;77.92
73633;BME280;61927;50.080;14.418;2022-11-27T12:29:37;100554.19;;;4.40;76.86
73633;BME280;61927;50.080;14.418;2022-11-27T12:40:08;100539.94;;;4.52;77.31
73633;BME280;61927;50.080;14.418;2022-11-27T12:43:12;100537.22;;;4.57;77.59
73633;BME280;61927;50.080;14.418;2022-11-27T12:48:22;100537.94;;;4.65;77.37
73633;BME280;61927;50.080;14.418;2022-11-27T12:50:53;100539.56;;;4.70;77.17
73633;BME280;61927;50.080;14.418;2022-11-27T12:53:41;100545.53;;;4.78;77.25
73633;BME280;61927;50.080;14.418;2022-11-27T13:04:41;100523.28;;;4.95;76.89
73633;BME280;61927;50.080;14.418;2022-11-27T13:09:51;100519.66;;;5.00;76.93
73633;BME280;61927;50.080;14.418;2022-11-27T13:15:36;100510.69;;;5.09;77.19
73633;BME280;61927;50.080;14.418;2022-11-27T13:20:50;100499.09;;;5.17;76.34
73633;BME280;61927;50.080;14.418;2022-11-27T13:23:18;100493.81;;;5.17;76.67
73633;BME280;61927;50.080;14.418;2022-11-27T13:25:48;100489.41;;;5.19;76.51
73633;BME280;61927;50.080;14.418;2022-11-27T13:28:23;100484.88;;;5.25;76.86
73633;BME280;61927;50.080;14.418;2022-11-27T13:30:52;100479.56;;;5.28;76.42
73633;BME280;61927;50.080;14.418;2022-11-27T13:33:39;100474.06;;;5.37;76.64
73633;BME280;61927;50.080;14.418;2022-11-27T13:36:07;100460.78;;;5.41;76.88
73633;BME280;61927;50.080;14.418;2022-11-27T13:38:42;100454.56;;;5.45;76.39
73633;BME280;61927;50.080;14.418;2022-11-27T13:41:19;100456.13;;;5.53;76.47
73633;BME280;61927;50.080;14.418;2022-11-27T13:43:46;100449.03;;;5.56;76.10
73633;BME280;61927;50.080;14.418;2022-11-27T13:46:29;100452.47;;;5.58;76.29
73633;BME280;61927;50.080;14.418;2022-11-27T13:48:59;100448.91;;;5.61;76.48
73633;BME280;61927;50.080;14.418;2022-11-27T13:51:32;100454.22;;;5.59;76.16
73633;BME280;61927;50.080;14.418;2022-11-27T13:54:15;100454.06;;;5.65;76.57
73633;BME280;61927;50.080;14.418;2022-11-27T13:56:43;100456.72;;;5.64;76.33
73633;BME280;61927;50.080;14.418;2022-11-27T13:59:17;100448.13;;;5.57;76.66
73633;BME280;61927;50.080;14.418;2022-11-27T14:01:56;100442.88;;;5.56;77.14
73633;BME280;61927;50.080;14.418;2022-11-27T14:04:24;100440.41;;;5.49;77.05
73633;BME280;61927;50.080;14.418;2022-11-27T14:07:08;100427.34;;;5.46;77.39
73633;BME280;61927;50.080;14.418;2022-11-27T14:09:37;100423.78;;;5.47;77.94
73633;BME280;61927;50.080;14.418;2022-11-27T14:12:15;100416.81;;;5.46;77.27
73633;BME280;61927;50.080;14.418;2022-11-27T14:14:43;100418.53;;;5.47;78.15
73633;BME280;61927;50.080;14.418;2022-11-27T14:17:23;100416.69;;;5.51;77.35
73633;BME280;61927;50.080;14.418;2022-11-27T14:19:59;100415.69;;;5.55;77.82
73633;BME280;61927;50.080;14.418;2022-11-27T14:22:45;100410.44;;;5.55;77.05
73633;BME280;61927;50.080;14.418;2022-11-27T14:25:29;100413.00;;;5.58;77.65
73633;BME280;61927;50.080;14.418;2022-11-27T14:27:59;100413.09;;;5.54;77.92
73633;BME280;61927;50.080;14.418;2022-11-27T14:30:40;100411.50;;;5.48;78.44
73633;BME280;61927;50.080;14.418;2022-11-27T14:33:16;100406.03;;;5.56;77.66